createdAt,value
2022-10-06T00:01:27.961Z,1.27
2022-10-06T00:03:54.449Z,0.95
2022-10-06T00:06:20.887Z,2.17
2022-10-06T00:08:47.258Z,1.40
2022-10-06T00:11:14.884Z,1.17
2022-10-06T00:13:41.654Z,1.40
2022-10-06T00:16:18.605Z,1.60
2022-10-06T00:18:45.005Z,1.60
2022-10-06T00:21:11.392Z,1.52
2022-10-06T00:23:37.737Z,1.58
2022-10-06T00:26:04.069Z,1.55
2022-10-06T00:28:30.782Z,1.92
2022-10-06T00:31:00.741Z,1.95
2022-10-06T00:33:27.163Z,1.27
2022-10-06T00:35:57.840Z,2.35
2022-10-06T00:38:24.534Z,1.70
2022-10-06T00:40:51.130Z,1.38
2022-10-06T00:43:36.015Z,2.53
2022-10-06T00:46:02.493Z,1.55
2022-10-06T00:48:31.104Z,2.53
2022-10-06T00:50:58.316Z,2.03
2022-10-06T00:53:27.401Z,1.30
2022-10-06T00:55:54.372Z,1.88
2022-10-06T00:58:21.221Z,2.53
2022-10-06T01:00:49.205Z,2.03
2022-10-06T01:03:17.363Z,1.85
2022-10-06T01:05:47.114Z,2.35
2022-10-06T01:08:14.084Z,1.70
2022-10-06T01:10:43.365Z,1.95
2022-10-06T01:13:13.319Z,2.10
2022-10-06T01:15:43.073Z,1.92
2022-10-06T01:18:14.231Z,1.92
2022-10-06T01:20:43.974Z,1.83
2022-10-06T01:23:10.589Z,1.83
2022-10-06T01:25:38.065Z,2.75
2022-10-06T01:28:05.590Z,1.70
2022-10-06T01:30:38.785Z,2.45
2022-10-06T01:33:05.394Z,2.40
2022-10-06T01:35:33.115Z,2.10
2022-10-06T01:38:00.268Z,2.08
2022-10-06T01:40:29.209Z,2.20
2022-10-06T01:42:58.420Z,1.67
2022-10-06T01:45:26.497Z,2.60
2022-10-06T01:47:52.963Z,1.65
2022-10-06T01:50:19.762Z,1.67
2022-10-06T01:52:46.219Z,1.63
2022-10-06T01:55:13.454Z,2.05
2022-10-06T01:57:40.778Z,1.92
2022-10-06T02:00:08.125Z,2.95
2022-10-06T02:02:39.280Z,1.80
2022-10-06T02:05:06.049Z,2.38
2022-10-06T02:07:35.105Z,2.03
2022-10-06T02:10:01.676Z,2.40
2022-10-06T02:12:31.794Z,2.05
2022-10-06T02:14:59.457Z,2.10
2022-10-06T02:17:25.790Z,2.17
2022-10-06T02:19:52.240Z,3.08
2022-10-06T02:22:19.714Z,2.00
2022-10-06T02:24:48.050Z,2.33
2022-10-06T02:27:14.551Z,1.90
2022-10-06T02:29:41.233Z,1.75
2022-10-06T02:32:08.265Z,2.30
2022-10-06T02:34:34.740Z,1.50
2022-10-06T02:37:01.145Z,2.35
2022-10-06T02:39:29.312Z,2.22
2022-10-06T02:41:56.883Z,2.53
2022-10-06T02:44:25.204Z,1.85
2022-10-06T02:46:53.649Z,1.95
2022-10-06T02:49:21.497Z,1.98
2022-10-06T02:51:48.749Z,1.77
2022-10-06T02:54:15.977Z,2.33
2022-10-06T02:56:42.325Z,1.98
2022-10-06T02:59:09.282Z,1.95
2022-10-06T03:01:36.878Z,2.20
2022-10-06T03:04:12.011Z,2.03
2022-10-06T03:06:41.485Z,1.63
2022-10-06T03:09:16.025Z,2.25
2022-10-06T03:11:43.377Z,1.90
2022-10-06T03:14:16.665Z,2.10
2022-10-06T03:16:50.180Z,2.25
2022-10-06T03:19:21.310Z,2.38
2022-10-06T03:21:48.034Z,2.13
2022-10-06T03:24:14.965Z,1.80
2022-10-06T03:26:45.289Z,2.83
2022-10-06T03:29:13.106Z,2.30
2022-10-06T03:31:43.303Z,1.75
2022-10-06T03:34:10.477Z,2.10
2022-10-06T03:36:36.925Z,2.08
2022-10-06T03:39:04.851Z,1.88
2022-10-06T03:41:34.022Z,2.53
2022-10-06T03:44:00.800Z,2.10
2022-10-06T03:46:28.716Z,2.10
2022-10-06T03:48:57.109Z,1.95
2022-10-06T03:51:27.124Z,1.83
2022-10-06T03:53:55.485Z,1.88
2022-10-06T03:56:21.821Z,2.38
2022-10-06T03:58:52.562Z,2.20
2022-10-06T04:01:26.222Z,2.20
2022-10-06T04:03:57.397Z,2.00
2022-10-06T04:06:24.767Z,2.38
2022-10-06T04:08:52.280Z,2.10
2022-10-06T04:11:22.341Z,1.58
2022-10-06T04:14:03.661Z,1.23
2022-10-06T04:16:31.312Z,2.03
2022-10-06T04:18:59.849Z,3.03
2022-10-06T04:21:27.523Z,2.70
2022-10-06T04:23:55.399Z,1.83
2022-10-06T04:26:22.776Z,2.67
2022-10-06T04:28:51.409Z,1.55
2022-10-06T04:31:19.357Z,2.88
2022-10-06T04:33:46.849Z,2.33
2022-10-06T04:36:16.862Z,2.67
2022-10-06T04:38:43.505Z,1.88
2022-10-06T04:41:11.625Z,1.88
2022-10-06T04:43:38.089Z,2.25
2022-10-06T04:46:18.386Z,2.22
2022-10-06T04:48:52.246Z,2.60
2022-10-06T04:51:20.492Z,3.03
2022-10-06T04:53:47.380Z,2.20
2022-10-06T04:56:17.047Z,2.38
2022-10-06T04:58:44.822Z,2.53
2022-10-06T05:01:18.923Z,2.80
2022-10-06T05:03:47.077Z,2.28
2022-10-06T05:06:17.633Z,2.10
2022-10-06T05:08:47.008Z,2.28
2022-10-06T05:11:15.168Z,2.13
2022-10-06T05:13:43.262Z,2.28
2022-10-06T05:16:12.741Z,2.75
2022-10-06T05:18:39.473Z,2.42
2022-10-06T05:21:08.246Z,1.85
2022-10-06T05:23:36.936Z,2.17
2022-10-06T05:26:03.750Z,2.30
2022-10-06T05:28:30.659Z,2.40
2022-10-06T05:30:59.267Z,4.53
2022-10-06T05:33:27.556Z,2.33
2022-10-06T05:35:58.116Z,3.30
2022-10-06T05:38:25.253Z,2.40
2022-10-06T05:40:59.738Z,3.25
2022-10-06T05:43:26.139Z,3.33
2022-10-06T05:45:56.892Z,3.15
2022-10-06T05:48:23.414Z,3.03
2022-10-06T05:50:57.519Z,2.97
2022-10-06T05:53:24.249Z,2.75
2022-10-06T05:55:50.682Z,3.28
2022-10-06T05:58:18.569Z,2.90
2022-10-06T06:00:45.923Z,3.58
2022-10-06T06:03:14.096Z,3.40
2022-10-06T06:05:41.814Z,2.70
2022-10-06T06:08:10.317Z,2.58
2022-10-06T06:10:37.210Z,3.35
2022-10-06T06:13:03.765Z,3.58
2022-10-06T06:15:57.032Z,3.13
2022-10-06T06:18:23.396Z,2.80
2022-10-06T06:20:57.348Z,2.55
2022-10-06T06:23:23.884Z,2.42
2022-10-06T06:26:02.000Z,3.50
2022-10-06T06:28:29.944Z,3.45
2022-10-06T06:31:20.467Z,3.03
2022-10-06T06:33:53.252Z,3.63
2022-10-06T06:36:21.060Z,3.15
2022-10-06T06:38:52.057Z,3.50
2022-10-06T06:41:19.900Z,2.83
2022-10-06T06:43:47.851Z,3.17
2022-10-06T06:46:25.689Z,3.90
2022-10-06T06:49:04.438Z,3.00
2022-10-06T06:51:34.494Z,2.45
2022-10-06T06:54:02.486Z,3.97
2022-10-06T06:56:38.611Z,2.97
2022-10-06T06:59:10.740Z,3.38
2022-10-06T07:01:39.473Z,3.25
2022-10-06T07:04:06.221Z,3.22
2022-10-06T07:06:36.620Z,4.13
2022-10-06T07:09:03.601Z,3.47
2022-10-06T07:11:31.077Z,3.63
2022-10-06T07:14:01.132Z,2.95
2022-10-06T07:16:47.279Z,3.80
2022-10-06T07:19:32.681Z,3.92
2022-10-06T07:22:23.345Z,3.30
2022-10-06T07:25:08.394Z,3.50
2022-10-06T07:27:43.410Z,2.70
2022-10-06T07:30:13.507Z,2.80
2022-10-06T07:32:39.865Z,3.70
2022-10-06T07:35:06.485Z,3.53
2022-10-06T07:37:35.045Z,3.70
2022-10-06T07:40:01.876Z,3.65
2022-10-06T07:42:28.944Z,4.15
2022-10-06T07:45:13.965Z,3.65
2022-10-06T07:47:41.065Z,3.17
2022-10-06T07:50:08.220Z,3.30
2022-10-06T07:52:39.130Z,2.85
2022-10-06T07:55:06.020Z,3.55
2022-10-06T07:57:45.613Z,3.75
2022-10-06T08:00:15.316Z,3.63
2022-10-06T08:02:42.169Z,3.08
2022-10-06T08:05:08.638Z,3.55
2022-10-06T08:07:35.032Z,3.88
2022-10-06T08:10:04.855Z,3.53
2022-10-06T08:12:37.214Z,2.95
2022-10-06T08:17:35.391Z,4.03
2022-10-06T08:20:12.260Z,4.10
2022-10-06T08:22:44.014Z,3.40
2022-10-06T08:25:10.928Z,3.65
2022-10-06T08:27:38.049Z,3.45
2022-10-06T08:30:05.114Z,3.97
2022-10-06T08:32:32.802Z,3.60
2022-10-06T08:34:59.268Z,4.03
2022-10-06T08:37:26.728Z,3.65
2022-10-06T08:39:54.026Z,3.17
2022-10-06T08:42:43.662Z,3.72
2022-10-06T08:45:28.846Z,3.03
2022-10-06T08:48:01.011Z,3.85
2022-10-06T08:50:29.045Z,3.38
2022-10-06T08:53:00.296Z,3.72
2022-10-06T08:55:26.706Z,3.22
2022-10-06T08:58:07.460Z,3.45
2022-10-06T09:00:34.057Z,2.95
2022-10-06T09:03:01.614Z,3.67
2022-10-06T09:05:34.451Z,3.00
2022-10-06T09:08:16.105Z,3.45
2022-10-06T09:10:58.054Z,2.70
2022-10-06T09:13:53.399Z,3.40
2022-10-06T09:16:28.159Z,2.40
2022-10-06T09:19:08.773Z,2.75
2022-10-06T09:21:39.685Z,2.80
2022-10-06T09:24:12.883Z,3.55
2022-10-06T09:26:43.284Z,2.75
2022-10-06T09:29:09.769Z,2.13
2022-10-06T09:31:38.018Z,2.97
2022-10-06T09:34:22.897Z,3.28
2022-10-06T09:37:01.599Z,2.92
2022-10-06T09:39:39.332Z,3.08
2022-10-06T09:42:15.399Z,3.30
2022-10-06T09:44:55.090Z,3.17
2022-10-06T09:47:33.577Z,3.38
2022-10-06T09:50:03.743Z,2.67
2022-10-06T09:52:30.353Z,2.75
2022-10-06T09:55:09.621Z,2.05
2022-10-06T09:57:37.205Z,2.63
2022-10-06T10:00:04.592Z,2.17
2022-10-06T10:02:36.662Z,2.80
2022-10-06T10:05:10.585Z,2.97
2022-10-06T10:07:37.304Z,3.05
2022-10-06T10:10:23.144Z,1.95
2022-10-06T10:12:53.846Z,2.40
2022-10-06T10:15:20.149Z,2.88
2022-10-06T10:17:50.985Z,2.65
2022-10-06T10:20:28.794Z,2.60
2022-10-06T10:22:57.185Z,3.17
2022-10-06T10:25:42.369Z,2.58
2022-10-06T10:28:14.642Z,2.50
2022-10-06T10:33:07.361Z,2.67
2022-10-06T10:35:41.729Z,2.70
2022-10-06T10:38:14.858Z,2.40
2022-10-06T10:40:45.162Z,2.63
2022-10-06T10:43:15.508Z,2.40
2022-10-06T10:45:44.955Z,2.67
2022-10-06T10:48:13.802Z,2.55
2022-10-06T10:50:50.479Z,2.50
2022-10-06T10:53:20.477Z,2.80
2022-10-06T10:55:47.803Z,2.78
2022-10-06T10:58:23.697Z,2.58
2022-10-06T11:00:55.360Z,2.20
2022-10-06T11:03:21.800Z,1.95
2022-10-06T11:05:48.131Z,2.08
2022-10-06T11:08:22.905Z,2.28
2022-10-06T11:11:00.422Z,2.42
2022-10-06T11:13:40.714Z,2.10
2022-10-06T11:16:11.977Z,2.50
2022-10-06T11:18:49.293Z,2.13
2022-10-06T11:21:36.108Z,2.33
2022-10-06T11:24:14.574Z,2.58
2022-10-06T11:26:50.178Z,2.08
2022-10-06T11:29:25.081Z,2.03
2022-10-06T11:32:03.571Z,2.20
2022-10-06T11:34:30.080Z,2.78
2022-10-06T11:36:56.422Z,1.92
2022-10-06T11:39:26.046Z,2.30
2022-10-06T11:42:07.253Z,2.90
2022-10-06T11:44:39.579Z,2.30
2022-10-06T11:47:09.125Z,2.03
2022-10-06T11:49:36.863Z,2.50
2022-10-06T11:52:08.220Z,2.30
2022-10-06T11:54:52.232Z,2.10
2022-10-06T11:57:30.610Z,2.00
2022-10-06T12:00:03.195Z,2.50
2022-10-06T12:02:33.384Z,3.03
2022-10-06T12:08:01.225Z,2.08
2022-10-06T12:10:27.656Z,2.35
2022-10-06T12:13:13.887Z,2.00
2022-10-06T12:20:59.618Z,2.40
2022-10-06T12:24:05.106Z,2.47
2022-10-06T12:26:37.211Z,2.20
2022-10-06T12:29:19.078Z,2.92
2022-10-06T12:31:57.763Z,2.95
2022-10-06T12:34:39.546Z,2.53
2022-10-06T12:37:21.205Z,2.95
2022-10-06T12:39:47.746Z,2.00
2022-10-06T12:42:19.727Z,2.38
2022-10-06T12:44:50.450Z,2.28
2022-10-06T12:47:16.885Z,1.90
2022-10-06T12:49:48.525Z,2.28
2022-10-06T12:52:14.851Z,1.63
2022-10-06T12:54:50.206Z,1.95
2022-10-06T12:57:18.070Z,2.03
2022-10-06T12:59:44.652Z,1.95
2022-10-06T13:02:17.283Z,2.08
2022-10-06T13:04:45.034Z,1.58
2022-10-06T13:07:15.057Z,1.77
2022-10-06T13:09:41.418Z,1.70
2022-10-06T13:12:21.856Z,1.33
2022-10-06T13:14:48.605Z,2.25
2022-10-06T13:17:14.987Z,2.10
2022-10-06T13:19:43.737Z,2.35
2022-10-06T13:22:12.657Z,2.30
2022-10-06T13:24:39.072Z,1.83
2022-10-06T13:27:05.393Z,1.42
2022-10-06T13:29:33.792Z,1.60
2022-10-06T13:32:01.983Z,1.58
2022-10-06T13:34:34.910Z,1.80
2022-10-06T13:37:01.713Z,1.50
2022-10-06T13:39:32.110Z,1.80
2022-10-06T13:42:03.948Z,1.90
2022-10-06T13:44:33.417Z,1.38
2022-10-06T13:47:01.710Z,1.48
2022-10-06T13:49:30.501Z,1.85
2022-10-06T13:51:59.698Z,1.95
2022-10-06T13:54:29.570Z,1.65
2022-10-06T13:56:56.254Z,1.35
2022-10-06T13:59:23.008Z,1.60
2022-10-06T14:01:49.432Z,1.75
2022-10-06T14:04:20.255Z,1.58
2022-10-06T14:06:54.801Z,1.50
2022-10-06T14:09:25.981Z,1.75
2022-10-06T14:12:12.629Z,1.50
2022-10-06T14:14:39.447Z,1.27
2022-10-06T14:17:06.035Z,1.92
2022-10-06T14:19:34.171Z,1.58
2022-10-06T14:22:01.023Z,1.50
2022-10-06T14:24:28.338Z,1.77
2022-10-06T14:26:59.679Z,1.45
2022-10-06T14:29:26.563Z,1.42
2022-10-06T14:31:52.917Z,2.00
2022-10-06T14:34:20.149Z,1.63
2022-10-06T14:36:47.647Z,1.63
2022-10-06T14:39:15.051Z,1.48
2022-10-06T14:41:41.794Z,1.75
2022-10-06T14:44:10.216Z,1.58
2022-10-06T14:46:37.791Z,1.35
2022-10-06T14:49:08.205Z,1.63
2022-10-06T14:51:37.041Z,1.55
2022-10-06T14:54:07.849Z,1.60
2022-10-06T14:56:38.973Z,1.40
2022-10-06T14:59:06.781Z,2.00
2022-10-06T15:01:34.564Z,1.75
2022-10-06T15:04:02.885Z,1.83
2022-10-06T15:06:48.304Z,1.30
2022-10-06T15:09:14.797Z,1.50
2022-10-06T15:11:41.234Z,1.77
2022-10-06T15:14:10.622Z,1.75
2022-10-06T15:16:40.413Z,1.88
2022-10-06T15:19:06.977Z,1.80
2022-10-06T15:21:34.369Z,1.92
2022-10-06T15:24:01.938Z,1.27
2022-10-06T15:26:47.099Z,2.13
2022-10-06T15:29:13.781Z,2.53
2022-10-06T15:31:40.167Z,1.88
2022-10-06T15:34:08.139Z,1.33
2022-10-06T15:36:38.644Z,1.95
2022-10-06T15:39:06.918Z,1.90
2022-10-06T15:41:36.865Z,1.60
2022-10-06T15:44:03.935Z,1.67
2022-10-06T15:46:30.420Z,1.90
2022-10-06T15:49:01.257Z,1.95
2022-10-06T15:51:29.016Z,1.10
2022-10-06T15:53:56.484Z,1.58
2022-10-06T15:56:22.921Z,1.65
2022-10-06T15:58:49.288Z,1.40
2022-10-06T16:01:25.270Z,1.25
2022-10-06T16:03:53.111Z,1.45
2022-10-06T16:06:29.369Z,1.90
2022-10-06T16:08:55.712Z,1.50
2022-10-06T16:11:22.036Z,1.50
2022-10-06T16:13:48.375Z,1.55
2022-10-06T16:16:14.924Z,1.55
2022-10-06T16:18:41.343Z,1.27
2022-10-06T16:21:07.784Z,1.60
2022-10-06T16:23:34.097Z,2.22
2022-10-06T16:26:03.594Z,2.15
2022-10-06T16:28:29.955Z,1.80
2022-10-06T16:30:56.398Z,1.85
2022-10-06T16:33:23.817Z,1.80
2022-10-06T16:35:54.261Z,1.58
2022-10-06T16:38:20.717Z,1.85
2022-10-06T16:40:57.178Z,1.85
2022-10-06T16:43:24.430Z,1.70
2022-10-06T16:46:01.944Z,1.70
2022-10-06T16:48:30.594Z,1.48
2022-10-06T16:51:12.047Z,1.83
2022-10-06T16:53:39.477Z,1.60
2022-10-06T16:56:06.605Z,1.80
2022-10-06T16:58:40.235Z,1.67
2022-10-06T17:01:06.700Z,2.00
2022-10-06T17:03:33.488Z,1.40
2022-10-06T17:06:07.894Z,1.40
2022-10-06T17:08:34.512Z,1.83
2022-10-06T17:11:02.149Z,1.35
2022-10-06T17:13:28.554Z,1.58
2022-10-06T17:15:59.139Z,1.60
2022-10-06T17:18:25.693Z,1.63
2022-10-06T17:20:58.994Z,1.58
2022-10-06T17:23:26.049Z,1.25
2022-10-06T17:25:59.349Z,1.38
2022-10-06T17:28:25.834Z,2.25
2022-10-06T17:30:52.618Z,1.90
2022-10-06T17:33:19.322Z,1.45
2022-10-06T17:35:45.629Z,1.40
2022-10-06T17:38:11.960Z,3.25
2022-10-06T17:40:44.560Z,2.17
2022-10-06T17:43:10.869Z,2.00
2022-10-06T17:45:38.259Z,1.67
2022-10-06T17:48:06.304Z,4.35
2022-10-06T17:50:33.109Z,6.40
2022-10-06T17:52:59.522Z,2.72
2022-10-06T17:55:27.806Z,4.35
2022-10-06T17:57:58.373Z,5.00
2022-10-06T18:00:25.218Z,6.00
2022-10-06T18:02:51.998Z,7.95
2022-10-06T18:05:18.401Z,2.70
2022-10-06T18:07:44.937Z,4.38
2022-10-06T18:10:29.932Z,6.50
2022-10-06T18:12:56.323Z,3.65
2022-10-06T18:15:22.692Z,5.18
2022-10-06T18:17:50.491Z,4.10
2022-10-06T18:20:16.859Z,4.53
2022-10-06T18:22:43.805Z,3.40
2022-10-06T18:25:16.534Z,3.25
2022-10-06T18:27:43.501Z,17.45
2022-10-06T18:30:10.508Z,21.27
2022-10-06T18:38:09.834Z,3.33
2022-10-06T18:40:36.284Z,3.30
2022-10-06T18:43:02.715Z,6.75
2022-10-06T18:45:48.030Z,4.80
2022-10-06T18:48:33.569Z,4.43
2022-10-06T18:51:00.816Z,4.80
2022-10-06T18:53:27.220Z,7.93
2022-10-06T18:55:54.945Z,6.90
2022-10-06T18:58:21.307Z,8.35
2022-10-06T19:00:48.121Z,8.45
2022-10-06T19:03:14.513Z,8.50
2022-10-06T19:05:50.162Z,10.73
2022-10-06T19:08:16.562Z,5.57
2022-10-06T19:11:02.865Z,3.13
2022-10-06T19:13:29.292Z,4.03
2022-10-06T19:15:55.685Z,3.78
2022-10-06T19:18:22.053Z,2.80
2022-10-06T19:20:51.647Z,3.88
2022-10-06T19:23:19.006Z,2.92
2022-10-06T19:25:45.357Z,2.78
2022-10-06T19:28:11.716Z,3.50
2022-10-06T19:30:38.143Z,4.22
2022-10-06T19:33:04.707Z,4.05
2022-10-06T19:35:31.052Z,3.10
2022-10-06T19:37:57.365Z,2.53
2022-10-06T19:40:24.685Z,2.70
2022-10-06T19:42:51.284Z,2.90
2022-10-06T19:45:17.817Z,3.50
2022-10-06T19:47:45.243Z,3.22
2022-10-06T19:50:13.077Z,3.72
2022-10-06T19:52:40.141Z,4.03
2022-10-06T19:55:06.650Z,5.75
2022-10-06T19:57:33.490Z,6.43
2022-10-06T20:00:00.092Z,4.88
2022-10-06T20:02:27.150Z,4.72
2022-10-06T20:04:53.689Z,3.83
2022-10-06T20:07:21.731Z,2.88
2022-10-06T20:09:48.336Z,3.15
2022-10-06T20:12:14.952Z,2.15
2022-10-06T20:14:41.296Z,2.58
2022-10-06T20:17:07.762Z,1.60
2022-10-06T20:19:35.210Z,1.50
2022-10-06T20:22:01.618Z,1.73
2022-10-06T20:24:28.159Z,2.00
2022-10-06T20:26:54.657Z,1.75
2022-10-06T20:29:22.884Z,2.20
2022-10-06T20:31:50.700Z,1.77
2022-10-06T20:34:18.590Z,1.33
2022-10-06T20:36:45.254Z,1.85
2022-10-06T20:39:32.317Z,2.85
2022-10-06T20:41:58.666Z,3.40
2022-10-06T20:44:25.578Z,3.40
2022-10-06T20:46:52.168Z,4.53
2022-10-06T20:49:18.604Z,6.20
2022-10-06T20:51:46.453Z,7.60
2022-10-06T20:54:13.848Z,8.30
2022-10-06T20:56:40.241Z,8.38
2022-10-06T20:59:07.575Z,8.10
2022-10-06T21:01:35.500Z,6.75
2022-10-06T21:04:02.026Z,5.15
2022-10-06T21:06:28.736Z,4.35
2022-10-06T21:08:55.487Z,3.85
2022-10-06T21:11:23.515Z,3.90
2022-10-06T21:13:53.484Z,2.90
2022-10-06T21:16:24.605Z,3.17
2022-10-06T21:18:51.196Z,2.35
2022-10-06T21:21:17.671Z,2.63
2022-10-06T21:23:45.086Z,3.15
2022-10-06T21:26:12.857Z,2.30
2022-10-06T21:28:39.508Z,2.22
2022-10-06T21:31:07.783Z,2.47
2022-10-06T21:33:41.258Z,2.85
2022-10-06T21:36:09.756Z,3.05
2022-10-06T21:38:36.769Z,3.08
2022-10-06T21:41:23.152Z,2.65
2022-10-06T21:44:00.147Z,2.72
2022-10-06T21:46:30.897Z,2.88
2022-10-06T21:48:58.164Z,2.97
2022-10-06T21:51:25.454Z,3.22
2022-10-06T21:53:52.604Z,3.53
2022-10-06T21:56:19.820Z,3.67
2022-10-06T21:58:52.725Z,3.95
2022-10-06T22:01:20.705Z,3.10
2022-10-06T22:03:47.721Z,3.60
2022-10-06T22:06:18.940Z,3.25
2022-10-06T22:08:46.235Z,3.50
2022-10-06T22:11:14.090Z,3.05
2022-10-06T22:13:41.931Z,2.97
2022-10-06T22:16:09.453Z,3.20
2022-10-06T22:18:36.413Z,3.30
2022-10-06T22:21:12.407Z,3.33
2022-10-06T22:23:39.475Z,2.70
2022-10-06T22:26:06.032Z,3.20
2022-10-06T22:28:32.538Z,3.55
2022-10-06T22:31:06.364Z,3.47
2022-10-06T22:33:33.070Z,4.38
2022-10-06T22:35:59.791Z,4.45
2022-10-06T22:38:26.177Z,3.92
2022-10-06T22:40:52.550Z,3.75
2022-10-06T22:43:19.210Z,3.85
2022-10-06T22:45:45.541Z,3.88
2022-10-06T22:48:11.957Z,4.00
2022-10-06T22:50:38.256Z,3.42
2022-10-06T22:53:04.733Z,3.58
2022-10-06T22:55:31.070Z,4.05
2022-10-06T22:57:57.396Z,4.30
2022-10-06T23:00:23.776Z,4.20
2022-10-06T23:02:50.160Z,4.22
2022-10-06T23:05:16.533Z,4.28
2022-10-06T23:07:43.380Z,5.20
2022-10-06T23:10:10.042Z,4.38
2022-10-06T23:12:36.404Z,4.07
2022-10-06T23:15:02.895Z,4.72
2022-10-06T23:17:29.319Z,3.50
2022-10-06T23:19:55.708Z,4.63
2022-10-06T23:22:22.040Z,3.85
2022-10-06T23:24:49.408Z,4.18
2022-10-06T23:27:15.723Z,3.92
2022-10-06T23:29:42.052Z,3.47
2022-10-06T23:32:08.479Z,3.90
2022-10-06T23:34:34.808Z,4.28
2022-10-06T23:37:01.188Z,4.18
2022-10-06T23:39:27.980Z,3.72
2022-10-06T23:41:54.315Z,4.32
2022-10-06T23:44:20.647Z,4.13
2022-10-06T23:46:46.972Z,4.40
2022-10-06T23:49:13.300Z,4.85
2022-10-06T23:51:42.564Z,4.05
2022-10-06T23:54:08.983Z,3.63
2022-10-06T23:56:35.387Z,3.70
2022-10-06T23:59:01.791Z,4.90
